sensor_id;sensor_type;location;lat;lon;timestamp;temperature;humidity
13296;DHT22;64850;60.390;-1.374;2022-12-08T00:00:54;4.10;99.90
13296;DHT22;64850;60.390;-1.374;2022-12-08T00:03:20;4.10;99.90
13296;DHT22;64850;60.390;-1.374;2022-12-08T00:05:47;4.10;99.90
13296;DHT22;64850;60.390;-1.374;2022-12-08T00:08:32;4.20;99.90
13296;DHT22;64850;60.390;-1.374;2022-12-08T00:11:18;4.10;99.90
13296;DHT22;64850;60.390;-1.374;2022-12-08T00:13:45;4.10;99.90
13296;DHT22;64850;60.390;-1.374;2022-12-08T00:16:11;4.00;99.90
13296;DHT22;64850;60.390;-1.374;2022-12-08T00:18:37;3.90;99.90
13296;DHT22;64850;60.390;-1.374;2022-12-08T00:21:03;4.00;99.90
13296;DHT22;64850;60.390;-1.374;2022-12-08T00:23:29;4.20;99.90
13296;DHT22;64850;60.390;-1.374;2022-12-08T00:25:55;4.10;99.90
13296;DHT22;64850;60.390;-1.374;2022-12-08T00:28:21;4.10;99.90
13296;DHT22;64850;60.390;-1.374;2022-12-08T00:30:47;4.10;99.90
13296;DHT22;64850;60.390;-1.374;2022-12-08T00:33:12;4.00;99.90
13296;DHT22;64850;60.390;-1.374;2022-12-08T00:35:38;4.20;99.90
13296;DHT22;64850;60.390;-1.374;2022-12-08T00:38:04;4.30;99.90
13296;DHT22;64850;60.390;-1.374;2022-12-08T00:40:30;4.20;99.90
13296;DHT22;64850;60.390;-1.374;2022-12-08T00:42:56;4.20;99.90
13296;DHT22;64850;60.390;-1.374;2022-12-08T00:45:22;4.20;99.90
13296;DHT22;64850;60.390;-1.374;2022-12-08T00:47:47;4.10;99.90
13296;DHT22;64850;60.390;-1.374;2022-12-08T00:50:13;4.00;99.90
13296;DHT22;64850;60.390;-1.374;2022-12-08T00:52:39;4.10;99.90
13296;DHT22;64850;60.390;-1.374;2022-12-08T00:55:05;4.20;99.90
13296;DHT22;64850;60.390;-1.374;2022-12-08T00:57:31;4.30;99.90
13296;DHT22;64850;60.390;-1.374;2022-12-08T00:59:57;4.40;99.90
13296;DHT22;64850;60.390;-1.374;2022-12-08T01:02:23;4.30;99.90
13296;DHT22;64850;60.390;-1.374;2022-12-08T01:04:52;4.30;99.90
13296;DHT22;64850;60.390;-1.374;2022-12-08T01:07:18;4.30;99.90
13296;DHT22;64850;60.390;-1.374;2022-12-08T01:09:44;4.30;99.90
13296;DHT22;64850;60.390;-1.374;2022-12-08T01:12:10;4.30;99.90
13296;DHT22;64850;60.390;-1.374;2022-12-08T01:14:36;4.40;99.90
13296;DHT22;64850;60.390;-1.374;2022-12-08T01:17:02;4.30;99.90
13296;DHT22;64850;60.390;-1.374;2022-12-08T01:19:28;4.20;99.90
13296;DHT22;64850;60.390;-1.374;2022-12-08T01:21:55;4.20;99.90
13296;DHT22;64850;60.390;-1.374;2022-12-08T01:24:21;4.30;99.90
13296;DHT22;64850;60.390;-1.374;2022-12-08T01:26:49;4.10;99.90
13296;DHT22;64850;60.390;-1.374;2022-12-08T01:29:15;4.20;99.90
13296;DHT22;64850;60.390;-1.374;2022-12-08T01:31:41;4.10;99.90
13296;DHT22;64850;60.390;-1.374;2022-12-08T01:34:09;4.20;99.90
13296;DHT22;64850;60.390;-1.374;2022-12-08T01:36:36;4.10;99.90
13296;DHT22;64850;60.390;-1.374;2022-12-08T01:39:07;4.30;99.90
13296;DHT22;64850;60.390;-1.374;2022-12-08T01:41:37;4.40;99.90
13296;DHT22;64850;60.390;-1.374;2022-12-08T01:46:34;4.30;99.90
13296;DHT22;64850;60.390;-1.374;2022-12-08T01:54:28;4.20;99.90
13296;DHT22;64850;60.390;-1.374;2022-12-08T01:57:02;4.30;99.90
13296;DHT22;64850;60.390;-1.374;2022-12-08T01:59:28;4.10;99.90
13296;DHT22;64850;60.390;-1.374;2022-12-08T02:01:56;4.10;99.90
13296;DHT22;64850;60.390;-1.374;2022-12-08T02:04:22;4.20;99.90
13296;DHT22;64850;60.390;-1.374;2022-12-08T02:06:48;4.00;99.90
13296;DHT22;64850;60.390;-1.374;2022-12-08T02:09:15;4.20;99.90
13296;DHT22;64850;60.390;-1.374;2022-12-08T02:11:41;3.90;99.90
13296;DHT22;64850;60.390;-1.374;2022-12-08T02:14:08;4.10;99.90
13296;DHT22;64850;60.390;-1.374;2022-12-08T02:35:01;3.40;99.90
13296;DHT22;64850;60.390;-1.374;2022-12-08T02:37:38;3.50;99.90
13296;DHT22;64850;60.390;-1.374;2022-12-08T02:40:14;3.70;99.90
13296;DHT22;64850;60.390;-1.374;2022-12-08T02:42:45;3.70;99.90
13296;DHT22;64850;60.390;-1.374;2022-12-08T02:45:32;3.80;99.90
13296;DHT22;64850;60.390;-1.374;2022-12-08T02:47:59;3.90;99.90
13296;DHT22;64850;60.390;-1.374;2022-12-08T02:50:26;3.90;99.90
13296;DHT22;64850;60.390;-1.374;2022-12-08T02:52:52;4.10;99.90
13296;DHT22;64850;60.390;-1.374;2022-12-08T03:03:28;3.80;99.90
13296;DHT22;64850;60.390;-1.374;2022-12-08T03:06:16;3.40;99.90
13296;DHT22;64850;60.390;-1.374;2022-12-08T03:14:28;4.00;99.90
13296;DHT22;64850;60.390;-1.374;2022-12-08T03:16:56;4.20;99.90
13296;DHT22;64850;60.390;-1.374;2022-12-08T03:19:31;4.30;99.90
13296;DHT22;64850;60.390;-1.374;2022-12-08T03:21:59;4.00;99.90
13296;DHT22;64850;60.390;-1.374;2022-12-08T03:24:41;4.10;99.90
13296;DHT22;64850;60.390;-1.374;2022-12-08T03:27:11;3.90;99.90
13296;DHT22;64850;60.390;-1.374;2022-12-08T03:29:38;2.30;99.90
13296;DHT22;64850;60.390;-1.374;2022-12-08T03:32:18;4.10;99.90
13296;DHT22;64850;60.390;-1.374;2022-12-08T03:34:48;3.90;99.90
13296;DHT22;64850;60.390;-1.374;2022-12-08T03:37:15;4.00;99.90
13296;DHT22;64850;60.390;-1.374;2022-12-08T03:39:41;4.00;99.90
13296;DHT22;64850;60.390;-1.374;2022-12-08T03:42:07;3.90;99.90
13296;DHT22;64850;60.390;-1.374;2022-12-08T03:44:33;4.00;99.90
13296;DHT22;64850;60.390;-1.374;2022-12-08T03:46:58;4.10;99.90
13296;DHT22;64850;60.390;-1.374;2022-12-08T03:49:24;4.20;99.90
13296;DHT22;64850;60.390;-1.374;2022-12-08T03:51:50;4.30;99.90
13296;DHT22;64850;60.390;-1.374;2022-12-08T03:54:16;3.60;99.90
13296;DHT22;64850;60.390;-1.374;2022-12-08T03:56:42;3.60;99.90
13296;DHT22;64850;60.390;-1.374;2022-12-08T03:59:09;3.90;99.90
13296;DHT22;64850;60.390;-1.374;2022-12-08T04:01:35;4.10;99.90
13296;DHT22;64850;60.390;-1.374;2022-12-08T04:04:01;4.10;99.90
13296;DHT22;64850;60.390;-1.374;2022-12-08T04:06:27;4.40;99.90
13296;DHT22;64850;60.390;-1.374;2022-12-08T04:08:53;4.40;99.90
13296;DHT22;64850;60.390;-1.374;2022-12-08T04:11:22;4.20;99.90
13296;DHT22;64850;60.390;-1.374;2022-12-08T04:13:48;4.30;99.90
13296;DHT22;64850;60.390;-1.374;2022-12-08T04:16:32;4.20;99.90
13296;DHT22;64850;60.390;-1.374;2022-12-08T04:18:58;4.20;99.90
13296;DHT22;64850;60.390;-1.374;2022-12-08T04:21:23;4.10;99.90
13296;DHT22;64850;60.390;-1.374;2022-12-08T04:23:49;4.00;99.90
13296;DHT22;64850;60.390;-1.374;2022-12-08T04:26:16;4.10;99.90
13296;DHT22;64850;60.390;-1.374;2022-12-08T04:28:43;4.10;99.90
13296;DHT22;64850;60.390;-1.374;2022-12-08T04:31:09;4.10;99.90
13296;DHT22;64850;60.390;-1.374;2022-12-08T04:33:35;4.20;99.90
13296;DHT22;64850;60.390;-1.374;2022-12-08T04:36:03;4.20;99.90
13296;DHT22;64850;60.390;-1.374;2022-12-08T04:38:29;4.20;99.90
13296;DHT22;64850;60.390;-1.374;2022-12-08T04:40:55;4.30;99.90
13296;DHT22;64850;60.390;-1.374;2022-12-08T04:43:21;3.50;99.90
13296;DHT22;64850;60.390;-1.374;2022-12-08T04:45:47;3.00;99.90
13296;DHT22;64850;60.390;-1.374;2022-12-08T04:48:13;3.30;99.90
13296;DHT22;64850;60.390;-1.374;2022-12-08T04:50:42;3.40;99.90
13296;DHT22;64850;60.390;-1.374;2022-12-08T04:53:09;3.40;99.90
13296;DHT22;64850;60.390;-1.374;2022-12-08T04:55:38;3.60;99.90
13296;DHT22;64850;60.390;-1.374;2022-12-08T04:58:04;3.90;99.90
13296;DHT22;64850;60.390;-1.374;2022-12-08T05:00:30;4.00;99.90
13296;DHT22;64850;60.390;-1.374;2022-12-08T05:02:56;4.10;99.90
13296;DHT22;64850;60.390;-1.374;2022-12-08T05:05:22;3.60;99.90
13296;DHT22;64850;60.390;-1.374;2022-12-08T05:07:48;4.10;99.90
13296;DHT22;64850;60.390;-1.374;2022-12-08T05:10:14;3.60;99.90
13296;DHT22;64850;60.390;-1.374;2022-12-08T05:12:39;3.40;99.90
13296;DHT22;64850;60.390;-1.374;2022-12-08T05:15:06;3.50;99.90
13296;DHT22;64850;60.390;-1.374;2022-12-08T05:17:32;3.80;99.90
13296;DHT22;64850;60.390;-1.374;2022-12-08T05:20:01;2.20;99.90
13296;DHT22;64850;60.390;-1.374;2022-12-08T05:22:27;3.80;99.90
13296;DHT22;64850;60.390;-1.374;2022-12-08T05:24:52;3.80;99.90
13296;DHT22;64850;60.390;-1.374;2022-12-08T05:27:18;4.00;99.90
13296;DHT22;64850;60.390;-1.374;2022-12-08T05:29:44;3.90;99.90
13296;DHT22;64850;60.390;-1.374;2022-12-08T05:32:12;3.90;99.90
13296;DHT22;64850;60.390;-1.374;2022-12-08T05:34:38;4.90;99.90
13296;DHT22;64850;60.390;-1.374;2022-12-08T05:37:04;3.80;99.90
13296;DHT22;64850;60.390;-1.374;2022-12-08T05:39:30;3.90;99.90
13296;DHT22;64850;60.390;-1.374;2022-12-08T05:41:56;4.00;99.90
13296;DHT22;64850;60.390;-1.374;2022-12-08T05:44:21;4.20;99.90
13296;DHT22;64850;60.390;-1.374;2022-12-08T05:46:47;4.10;99.90
13296;DHT22;64850;60.390;-1.374;2022-12-08T05:49:13;3.10;99.90
13296;DHT22;64850;60.390;-1.374;2022-12-08T05:51:39;3.70;99.90
13296;DHT22;64850;60.390;-1.374;2022-12-08T05:54:05;3.50;99.90
13296;DHT22;64850;60.390;-1.374;2022-12-08T05:56:31;3.50;99.90
13296;DHT22;64850;60.390;-1.374;2022-12-08T05:58:57;3.90;99.90
13296;DHT22;64850;60.390;-1.374;2022-12-08T06:01:26;3.40;99.90
13296;DHT22;64850;60.390;-1.374;2022-12-08T06:03:52;3.30;99.90
13296;DHT22;64850;60.390;-1.374;2022-12-08T06:06:18;3.10;99.90
13296;DHT22;64850;60.390;-1.374;2022-12-08T06:08:44;3.30;99.90
13296;DHT22;64850;60.390;-1.374;2022-12-08T06:11:20;1.20;99.90
13296;DHT22;64850;60.390;-1.374;2022-12-08T06:13:47;3.50;99.90
13296;DHT22;64850;60.390;-1.374;2022-12-08T06:16:12;3.50;99.90
13296;DHT22;64850;60.390;-1.374;2022-12-08T06:18:38;3.60;99.90
13296;DHT22;64850;60.390;-1.374;2022-12-08T06:21:09;3.70;99.90
13296;DHT22;64850;60.390;-1.374;2022-12-08T06:23:36;3.70;99.90
13296;DHT22;64850;60.390;-1.374;2022-12-08T06:26:07;3.70;99.90
13296;DHT22;64850;60.390;-1.374;2022-12-08T06:28:34;4.00;99.90
13296;DHT22;64850;60.390;-1.374;2022-12-08T06:31:15;3.20;99.90
13296;DHT22;64850;60.390;-1.374;2022-12-08T06:33:42;3.90;99.90
13296;DHT22;64850;60.390;-1.374;2022-12-08T06:36:10;4.10;99.90
13296;DHT22;64850;60.390;-1.374;2022-12-08T06:38:37;4.20;99.90
13296;DHT22;64850;60.390;-1.374;2022-12-08T06:41:02;4.10;99.90
13296;DHT22;64850;60.390;-1.374;2022-12-08T06:43:30;4.20;99.90
13296;DHT22;64850;60.390;-1.374;2022-12-08T06:45:56;4.20;99.90
13296;DHT22;64850;60.390;-1.374;2022-12-08T06:48:22;4.10;99.90
13296;DHT22;64850;60.390;-1.374;2022-12-08T06:50:48;3.90;99.90
13296;DHT22;64850;60.390;-1.374;2022-12-08T06:53:15;4.00;99.90
13296;DHT22;64850;60.390;-1.374;2022-12-08T06:55:45;3.90;99.90
13296;DHT22;64850;60.390;-1.374;2022-12-08T06:58:12;3.90;99.90
13296;DHT22;64850;60.390;-1.374;2022-12-08T07:00:39;3.90;99.90
13296;DHT22;64850;60.390;-1.374;2022-12-08T07:03:06;4.00;99.90
13296;DHT22;64850;60.390;-1.374;2022-12-08T07:05:33;4.10;99.90
13296;DHT22;64850;60.390;-1.374;2022-12-08T07:07:59;4.10;99.90
13296;DHT22;64850;60.390;-1.374;2022-12-08T07:10:25;3.90;99.90
13296;DHT22;64850;60.390;-1.374;2022-12-08T07:12:51;4.00;99.90
13296;DHT22;64850;60.390;-1.374;2022-12-08T07:15:19;3.90;99.90
13296;DHT22;64850;60.390;-1.374;2022-12-08T07:17:46;3.90;99.90
13296;DHT22;64850;60.390;-1.374;2022-12-08T07:20:15;4.10;99.90
13296;DHT22;64850;60.390;-1.374;2022-12-08T07:22:50;3.50;99.90
13296;DHT22;64850;60.390;-1.374;2022-12-08T07:25:17;2.80;99.90
13296;DHT22;64850;60.390;-1.374;2022-12-08T07:27:44;2.90;99.90
13296;DHT22;64850;60.390;-1.374;2022-12-08T07:30:10;3.00;99.90
13296;DHT22;64850;60.390;-1.374;2022-12-08T07:32:38;3.20;99.90
13296;DHT22;64850;60.390;-1.374;2022-12-08T07:35:05;3.30;99.90
13296;DHT22;64850;60.390;-1.374;2022-12-08T07:37:32;3.70;99.90
13296;DHT22;64850;60.390;-1.374;2022-12-08T07:39:59;3.60;99.90
13296;DHT22;64850;60.390;-1.374;2022-12-08T07:42:24;3.60;99.90
13296;DHT22;64850;60.390;-1.374;2022-12-08T07:44:50;3.60;99.90
13296;DHT22;64850;60.390;-1.374;2022-12-08T07:47:16;3.70;99.90
13296;DHT22;64850;60.390;-1.374;2022-12-08T07:49:42;3.60;99.90
13296;DHT22;64850;60.390;-1.374;2022-12-08T07:52:08;3.50;99.90
13296;DHT22;64850;60.390;-1.374;2022-12-08T07:54:34;3.70;99.90
13296;DHT22;64850;60.390;-1.374;2022-12-08T07:57:00;3.90;99.90
13296;DHT22;64850;60.390;-1.374;2022-12-08T07:59:28;3.50;99.90
13296;DHT22;64850;60.390;-1.374;2022-12-08T08:01:54;3.10;99.90
13296;DHT22;64850;60.390;-1.374;2022-12-08T08:04:20;3.50;99.90
13296;DHT22;64850;60.390;-1.374;2022-12-08T08:06:46;3.60;99.90
13296;DHT22;64850;60.390;-1.374;2022-12-08T08:09:11;3.50;99.90
13296;DHT22;64850;60.390;-1.374;2022-12-08T08:11:37;3.50;99.90
13296;DHT22;64850;60.390;-1.374;2022-12-08T08:14:03;3.50;99.90
13296;DHT22;64850;60.390;-1.374;2022-12-08T08:16:29;3.40;99.90
13296;DHT22;64850;60.390;-1.374;2022-12-08T08:18:55;3.40;99.90
13296;DHT22;64850;60.390;-1.374;2022-12-08T08:21:21;3.60;99.90
13296;DHT22;64850;60.390;-1.374;2022-12-08T08:23:47;2.40;99.90
13296;DHT22;64850;60.390;-1.374;2022-12-08T08:26:13;3.50;99.90
13296;DHT22;64850;60.390;-1.374;2022-12-08T08:28:39;3.60;99.90
13296;DHT22;64850;60.390;-1.374;2022-12-08T08:31:05;3.10;99.90
13296;DHT22;64850;60.390;-1.374;2022-12-08T08:33:32;3.20;99.90
13296;DHT22;64850;60.390;-1.374;2022-12-08T08:35:58;3.50;99.90
13296;DHT22;64850;60.390;-1.374;2022-12-08T08:38:24;3.50;99.90
13296;DHT22;64850;60.390;-1.374;2022-12-08T08:40:50;3.50;99.90
13296;DHT22;64850;60.390;-1.374;2022-12-08T08:43:18;3.40;99.90
13296;DHT22;64850;60.390;-1.374;2022-12-08T08:45:58;3.60;99.90
13296;DHT22;64850;60.390;-1.374;2022-12-08T08:48:29;3.50;99.90
13296;DHT22;64850;60.390;-1.374;2022-12-08T08:50:56;3.80;99.90
13296;DHT22;64850;60.390;-1.374;2022-12-08T08:53:22;3.80;99.90
13296;DHT22;64850;60.390;-1.374;2022-12-08T08:55:49;3.60;99.90
13296;DHT22;64850;60.390;-1.374;2022-12-08T08:58:15;3.60;99.90
13296;DHT22;64850;60.390;-1.374;2022-12-08T09:00:41;3.70;99.90
13296;DHT22;64850;60.390;-1.374;2022-12-08T09:03:07;3.70;99.90
13296;DHT22;64850;60.390;-1.374;2022-12-08T09:05:33;3.80;99.90
13296;DHT22;64850;60.390;-1.374;2022-12-08T09:07:59;3.70;99.90
13296;DHT22;64850;60.390;-1.374;2022-12-08T09:10:25;3.60;99.90
13296;DHT22;64850;60.390;-1.374;2022-12-08T09:12:51;3.60;99.90
13296;DHT22;64850;60.390;-1.374;2022-12-08T09:15:17;3.40;99.90
13296;DHT22;64850;60.390;-1.374;2022-12-08T09:17:45;3.40;99.90
13296;DHT22;64850;60.390;-1.374;2022-12-08T09:20:11;2.90;99.90
13296;DHT22;64850;60.390;-1.374;2022-12-08T09:22:37;2.90;99.90
13296;DHT22;64850;60.390;-1.374;2022-12-08T09:25:03;0.50;99.90
13296;DHT22;64850;60.390;-1.374;2022-12-08T09:27:30;3.20;99.90
13296;DHT22;64850;60.390;-1.374;2022-12-08T09:29:56;3.00;99.90
13296;DHT22;64850;60.390;-1.374;2022-12-08T09:32:22;3.00;99.90
13296;DHT22;64850;60.390;-1.374;2022-12-08T09:34:48;2.90;99.90
13296;DHT22;64850;60.390;-1.374;2022-12-08T09:37:13;2.90;99.90
13296;DHT22;64850;60.390;-1.374;2022-12-08T09:39:39;3.00;99.90
13296;DHT22;64850;60.390;-1.374;2022-12-08T09:42:06;3.10;99.90
13296;DHT22;64850;60.390;-1.374;2022-12-08T09:50:04;3.50;99.90
13296;DHT22;64850;60.390;-1.374;2022-12-08T09:52:44;3.50;99.90
13296;DHT22;64850;60.390;-1.374;2022-12-08T09:55:23;2.80;99.90
13296;DHT22;64850;60.390;-1.374;2022-12-08T09:57:57;3.40;99.90
13296;DHT22;64850;60.390;-1.374;2022-12-08T10:00:24;3.30;99.90
13296;DHT22;64850;60.390;-1.374;2022-12-08T10:02:50;3.30;99.90
13296;DHT22;64850;60.390;-1.374;2022-12-08T10:05:16;3.20;99.90
13296;DHT22;64850;60.390;-1.374;2022-12-08T10:08:10;3.20;99.90
13296;DHT22;64850;60.390;-1.374;2022-12-08T10:10:41;3.10;99.90
13296;DHT22;64850;60.390;-1.374;2022-12-08T10:16:14;3.00;99.90
13296;DHT22;64850;60.390;-1.374;2022-12-08T10:18:44;3.20;99.90
13296;DHT22;64850;60.390;-1.374;2022-12-08T10:21:20;3.20;99.90
13296;DHT22;64850;60.390;-1.374;2022-12-08T10:23:53;3.30;99.90
13296;DHT22;64850;60.390;-1.374;2022-12-08T10:26:23;3.30;99.90
13296;DHT22;64850;60.390;-1.374;2022-12-08T10:28:49;3.30;99.90
13296;DHT22;64850;60.390;-1.374;2022-12-08T10:31:22;3.30;99.90
13296;DHT22;64850;60.390;-1.374;2022-12-08T10:34:11;3.40;99.90
13296;DHT22;64850;60.390;-1.374;2022-12-08T10:36:53;3.40;99.90
13296;DHT22;64850;60.390;-1.374;2022-12-08T10:39:30;3.30;99.90
13296;DHT22;64850;60.390;-1.374;2022-12-08T10:42:03;3.30;99.90
13296;DHT22;64850;60.390;-1.374;2022-12-08T10:44:30;3.50;99.90
13296;DHT22;64850;60.390;-1.374;2022-12-08T10:46:56;3.40;99.90
13296;DHT22;64850;60.390;-1.374;2022-12-08T10:49:31;2.50;99.90
13296;DHT22;64850;60.390;-1.374;2022-12-08T10:51:58;2.10;99.90
13296;DHT22;64850;60.390;-1.374;2022-12-08T10:54:34;1.80;99.90
13296;DHT22;64850;60.390;-1.374;2022-12-08T10:57:03;1.90;99.90
13296;DHT22;64850;60.390;-1.374;2022-12-08T10:59:32;1.60;99.90
13296;DHT22;64850;60.390;-1.374;2022-12-08T11:01:59;1.40;99.90
13296;DHT22;64850;60.390;-1.374;2022-12-08T11:04:29;1.50;99.90
13296;DHT22;64850;60.390;-1.374;2022-12-08T11:06:58;1.70;99.90
13296;DHT22;64850;60.390;-1.374;2022-12-08T11:09:45;1.80;99.90
13296;DHT22;64850;60.390;-1.374;2022-12-08T11:12:20;2.10;99.90
13296;DHT22;64850;60.390;-1.374;2022-12-08T11:14:48;2.50;99.90
13296;DHT22;64850;60.390;-1.374;2022-12-08T11:17:22;3.10;99.90
13296;DHT22;64850;60.390;-1.374;2022-12-08T11:20:28;3.30;99.90
13296;DHT22;64850;60.390;-1.374;2022-12-08T11:22:52;3.30;99.90
13296;DHT22;64850;60.390;-1.374;2022-12-08T11:25:27;3.20;99.90
13296;DHT22;64850;60.390;-1.374;2022-12-08T11:27:57;3.30;99.90
13296;DHT22;64850;60.390;-1.374;2022-12-08T11:30:28;3.10;99.90
13296;DHT22;64850;60.390;-1.374;2022-12-08T11:33:21;2.90;99.90
13296;DHT22;64850;60.390;-1.374;2022-12-08T11:36:01;2.90;99.90
13296;DHT22;64850;60.390;-1.374;2022-12-08T11:38:29;2.30;99.90
13296;DHT22;64850;60.390;-1.374;2022-12-08T11:41:11;3.00;99.90
13296;DHT22;64850;60.390;-1.374;2022-12-08T11:44:10;3.40;99.90
13296;DHT22;64850;60.390;-1.374;2022-12-08T11:46:59;3.40;99.90
13296;DHT22;64850;60.390;-1.374;2022-12-08T11:49:35;3.30;99.90
13296;DHT22;64850;60.390;-1.374;2022-12-08T11:52:37;3.20;99.90
13296;DHT22;64850;60.390;-1.374;2022-12-08T11:55:33;3.30;99.90
13296;DHT22;64850;60.390;-1.374;2022-12-08T11:58:21;3.50;99.90
13296;DHT22;64850;60.390;-1.374;2022-12-08T12:00:49;2.90;99.90
13296;DHT22;64850;60.390;-1.374;2022-12-08T12:03:30;2.30;99.90
13296;DHT22;64850;60.390;-1.374;2022-12-08T12:12:35;3.00;99.90
13296;DHT22;64850;60.390;-1.374;2022-12-08T12:20:33;3.30;99.90
13296;DHT22;64850;60.390;-1.374;2022-12-08T12:23:35;3.00;99.90
13296;DHT22;64850;60.390;-1.374;2022-12-08T12:26:08;2.90;99.90
13296;DHT22;64850;60.390;-1.374;2022-12-08T12:28:46;2.90;99.90
13296;DHT22;64850;60.390;-1.374;2022-12-08T12:31:21;2.90;99.90
13296;DHT22;64850;60.390;-1.374;2022-12-08T12:33:48;3.30;99.90
13296;DHT22;64850;60.390;-1.374;2022-12-08T12:36:16;2.80;99.90
13296;DHT22;64850;60.390;-1.374;2022-12-08T12:38:46;2.60;99.90
13296;DHT22;64850;60.390;-1.374;2022-12-08T12:41:54;2.50;99.90
13296;DHT22;64850;60.390;-1.374;2022-12-08T13:00:02;3.60;99.90
13296;DHT22;64850;60.390;-1.374;2022-12-08T13:02:37;3.80;99.90
13296;DHT22;64850;60.390;-1.374;2022-12-08T13:05:17;3.70;99.90
13296;DHT22;64850;60.390;-1.374;2022-12-08T13:08:04;3.30;99.90
13296;DHT22;64850;60.390;-1.374;2022-12-08T13:10:36;2.90;99.90
13296;DHT22;64850;60.390;-1.374;2022-12-08T13:15:40;3.00;99.90
13296;DHT22;64850;60.390;-1.374;2022-12-08T13:18:33;3.10;99.90
13296;DHT22;64850;60.390;-1.374;2022-12-08T13:21:14;2.80;99.90
13296;DHT22;64850;60.390;-1.374;2022-12-08T13:26:28;3.00;99.90
13296;DHT22;64850;60.390;-1.374;2022-12-08T13:31:43;3.30;99.90
13296;DHT22;64850;60.390;-1.374;2022-12-08T13:44:51;3.60;99.90
13296;DHT22;64850;60.390;-1.374;2022-12-08T13:50:39;2.90;99.90
13296;DHT22;64850;60.390;-1.374;2022-12-08T13:55:49;3.70;99.90
13296;DHT22;64850;60.390;-1.374;2022-12-08T13:58:29;3.80;99.90
13296;DHT22;64850;60.390;-1.374;2022-12-08T14:01:18;3.80;99.90
13296;DHT22;64850;60.390;-1.374;2022-12-08T14:03:52;3.80;99.90
13296;DHT22;64850;60.390;-1.374;2022-12-08T14:06:35;3.80;99.90
13296;DHT22;64850;60.390;-1.374;2022-12-08T14:09:06;3.80;99.90
13296;DHT22;64850;60.390;-1.374;2022-12-08T14:11:39;3.70;99.90
13296;DHT22;64850;60.390;-1.374;2022-12-08T14:16:42;4.00;99.90
13296;DHT22;64850;60.390;-1.374;2022-12-08T14:19:36;4.00;99.90
13296;DHT22;64850;60.390;-1.374;2022-12-08T14:22:10;4.20;99.90
13296;DHT22;64850;60.390;-1.374;2022-12-08T14:24:37;4.00;99.90
13296;DHT22;64850;60.390;-1.374;2022-12-08T14:27:07;4.00;99.90
13296;DHT22;64850;60.390;-1.374;2022-12-08T14:29:54;4.10;99.90
13296;DHT22;64850;60.390;-1.374;2022-12-08T14:37:30;4.10;99.90
13296;DHT22;64850;60.390;-1.374;2022-12-08T14:40:00;3.90;99.90
13296;DHT22;64850;60.390;-1.374;2022-12-08T14:42:28;3.80;99.90
13296;DHT22;64850;60.390;-1.374;2022-12-08T14:45:09;3.30;99.90
13296;DHT22;64850;60.390;-1.374;2022-12-08T14:47:35;4.00;99.90
13296;DHT22;64850;60.390;-1.374;2022-12-08T14:50:39;4.10;99.90
13296;DHT22;64850;60.390;-1.374;2022-12-08T14:53:15;3.70;99.90
13296;DHT22;64850;60.390;-1.374;2022-12-08T14:55:43;3.20;99.90
13296;DHT22;64850;60.390;-1.374;2022-12-08T14:58:36;3.00;99.90
13296;DHT22;64850;60.390;-1.374;2022-12-08T15:01:05;3.20;99.90
13296;DHT22;64850;60.390;-1.374;2022-12-08T15:03:32;3.20;99.90
13296;DHT22;64850;60.390;-1.374;2022-12-08T15:06:04;3.60;99.90
13296;DHT22;64850;60.390;-1.374;2022-12-08T15:08:31;3.70;99.90
13296;DHT22;64850;60.390;-1.374;2022-12-08T15:11:23;3.80;99.90
13296;DHT22;64850;60.390;-1.374;2022-12-08T15:13:52;3.20;99.90
13296;DHT22;64850;60.390;-1.374;2022-12-08T15:16:39;3.20;99.90
13296;DHT22;64850;60.390;-1.374;2022-12-08T15:21:39;3.20;99.90
13296;DHT22;64850;60.390;-1.374;2022-12-08T15:24:05;3.20;99.90
13296;DHT22;64850;60.390;-1.374;2022-12-08T15:26:38;3.20;99.90
13296;DHT22;64850;60.390;-1.374;2022-12-08T15:29:26;3.20;99.90
13296;DHT22;64850;60.390;-1.374;2022-12-08T15:31:56;3.20;99.90
13296;DHT22;64850;60.390;-1.374;2022-12-08T15:34:22;2.00;99.90
13296;DHT22;64850;60.390;-1.374;2022-12-08T15:36:49;3.30;99.90
13296;DHT22;64850;60.390;-1.374;2022-12-08T15:39:36;3.30;99.90
13296;DHT22;64850;60.390;-1.374;2022-12-08T15:42:05;3.30;99.90
13296;DHT22;64850;60.390;-1.374;2022-12-08T15:44:34;3.20;99.90
13296;DHT22;64850;60.390;-1.374;2022-12-08T15:47:00;3.40;99.90
13296;DHT22;64850;60.390;-1.374;2022-12-08T15:49:26;3.50;99.90
13296;DHT22;64850;60.390;-1.374;2022-12-08T15:51:52;3.40;99.90
13296;DHT22;64850;60.390;-1.374;2022-12-08T15:54:19;3.40;99.90
13296;DHT22;64850;60.390;-1.374;2022-12-08T15:56:54;2.80;99.90
13296;DHT22;64850;60.390;-1.374;2022-12-08T15:59:23;2.50;99.90
13296;DHT22;64850;60.390;-1.374;2022-12-08T16:01:50;2.30;99.90
13296;DHT22;64850;60.390;-1.374;2022-12-08T16:04:18;2.30;99.90
13296;DHT22;64850;60.390;-1.374;2022-12-08T16:06:50;2.40;99.90
13296;DHT22;64850;60.390;-1.374;2022-12-08T16:09:20;2.50;99.90
13296;DHT22;64850;60.390;-1.374;2022-12-08T16:11:48;2.60;99.90
13296;DHT22;64850;60.390;-1.374;2022-12-08T16:14:32;3.00;99.90
13296;DHT22;64850;60.390;-1.374;2022-12-08T16:17:00;2.90;99.90
13296;DHT22;64850;60.390;-1.374;2022-12-08T16:19:26;2.70;99.90
13296;DHT22;64850;60.390;-1.374;2022-12-08T16:21:52;2.70;99.90
13296;DHT22;64850;60.390;-1.374;2022-12-08T16:24:19;2.80;99.90
13296;DHT22;64850;60.390;-1.374;2022-12-08T16:26:45;2.80;99.90
13296;DHT22;64850;60.390;-1.374;2022-12-08T16:29:17;1.80;99.90
13296;DHT22;64850;60.390;-1.374;2022-12-08T16:31:44;3.10;99.90
13296;DHT22;64850;60.390;-1.374;2022-12-08T16:34:13;3.60;99.90
13296;DHT22;64850;60.390;-1.374;2022-12-08T16:36:40;3.60;99.90
13296;DHT22;64850;60.390;-1.374;2022-12-08T16:39:06;1.60;99.90
13296;DHT22;64850;60.390;-1.374;2022-12-08T16:41:32;3.70;99.90
13296;DHT22;64850;60.390;-1.374;2022-12-08T16:44:16;2.30;99.90
13296;DHT22;64850;60.390;-1.374;2022-12-08T16:46:42;3.90;99.90
13296;DHT22;64850;60.390;-1.374;2022-12-08T16:49:08;4.20;99.90
13296;DHT22;64850;60.390;-1.374;2022-12-08T16:51:34;4.50;99.90
13296;DHT22;64850;60.390;-1.374;2022-12-08T16:54:00;4.40;99.90
13296;DHT22;64850;60.390;-1.374;2022-12-08T16:56:26;4.60;99.90
13296;DHT22;64850;60.390;-1.374;2022-12-08T16:58:52;4.50;99.90
13296;DHT22;64850;60.390;-1.374;2022-12-08T17:01:18;4.40;99.90
13296;DHT22;64850;60.390;-1.374;2022-12-08T17:03:45;4.40;99.90
13296;DHT22;64850;60.390;-1.374;2022-12-08T17:06:15;4.50;99.90
13296;DHT22;64850;60.390;-1.374;2022-12-08T17:08:49;4.60;99.90
13296;DHT22;64850;60.390;-1.374;2022-12-08T17:11:22;4.60;99.90
13296;DHT22;64850;60.390;-1.374;2022-12-08T17:13:50;4.60;99.90
13296;DHT22;64850;60.390;-1.374;2022-12-08T17:16:17;4.50;99.90
13296;DHT22;64850;60.390;-1.374;2022-12-08T17:18:44;4.50;99.90
13296;DHT22;64850;60.390;-1.374;2022-12-08T17:21:11;3.20;99.90
13296;DHT22;64850;60.390;-1.374;2022-12-08T17:23:38;4.70;99.90
13296;DHT22;64850;60.390;-1.374;2022-12-08T17:26:04;4.70;99.90
13296;DHT22;64850;60.390;-1.374;2022-12-08T17:28:30;4.70;99.90
13296;DHT22;64850;60.390;-1.374;2022-12-08T17:30:56;4.50;99.90
13296;DHT22;64850;60.390;-1.374;2022-12-08T17:33:22;4.50;99.90
13296;DHT22;64850;60.390;-1.374;2022-12-08T17:35:52;4.50;99.90
13296;DHT22;64850;60.390;-1.374;2022-12-08T17:38:20;4.50;99.90